Time;durP1;ratioP1;P1;durP2;ratioP2;P2;SDS_P1;SDS_P2;PMS_P1;PMS_P2;Temp;Humidity;BMP_temperature;BMP_pressure;BME280_temperature;BME280_humidity;BME280_pressure;Samples;Min_cycle;Max_cycle;Signal;HPM_P1;HPM_P2
2020/12/27 00:01:56;;;;;;;1.13;1.02;;;19.30;70.30;;;;;;5007161;28;20029;-67
2020/12/27 00:04:34;;;;;;;1.83;0.93;;;19.40;70.20;;;;;;5024020;28;20073;-67
2020/12/27 00:07:16;;;;;;;2.03;0.75;;;19.40;70.30;;;;;;5015419;28;20056;-66
2020/12/27 00:09:46;;;;;;;;;;;19.40;70.20;;;;;;5015038;28;20042;-66
2020/12/27 00:12:16;;;;;;;0.77;0.77;;;19.40;70.30;;;;;;5012743;28;19925;-67
2020/12/27 00:14:47;;;;;;;0.60;0.60;;;19.40;70.20;;;;;;5008889;28;20046;-67
2020/12/27 00:17:18;;;;;;;2.13;1.13;;;19.50;70.20;;;;;;5015787;28;20077;-65
2020/12/27 00:19:49;;;;;;;1.35;0.90;;;19.50;70.20;;;;;;5013231;28;20072;-67
2020/12/27 00:22:21;;;;;;;0.65;0.63;;;19.50;70.20;;;;;;5009850;28;20037;-65
2020/12/27 00:24:50;;;;;;;0.63;0.63;;;19.50;70.10;;;;;;5018908;28;20533;-66
2020/12/27 00:27:22;;;;;;;0.85;0.85;;;19.50;70.10;;;;;;5015826;28;20110;-66
2020/12/27 00:29:56;;;;;;;0.70;0.70;;;19.60;70.00;;;;;;4995279;28;20042;-73
2020/12/27 00:32:31;;;;;;;0.40;0.40;;;19.60;70.10;;;;;;5023931;28;20041;-68
2020/12/27 00:35:02;;;;;;;0.63;0.63;;;19.60;70.10;;;;;;5020241;28;20045;-69
2020/12/27 00:37:35;;;;;;;0.60;0.60;;;19.70;70.00;;;;;;5019607;28;20493;-70
2020/12/27 00:40:05;;;;;;;;;;;19.70;70.00;;;;;;5015703;28;20042;-65
2020/12/27 00:42:37;;;;;;;0.73;0.60;;;19.70;70.00;;;;;;5013487;28;19931;-67
2020/12/27 00:45:07;;;;;;;0.93;0.90;;;19.70;69.80;;;;;;5008823;28;20045;-66
2020/12/27 00:47:37;;;;;;;1.05;0.95;;;19.80;69.80;;;;;;5017321;28;20051;-67
2020/12/27 00:50:08;;;;;;;1.05;0.70;;;19.80;69.80;;;;;;5001888;28;20053;-67
2020/12/27 00:52:39;;;;;;;1.40;1.00;;;19.80;69.80;;;;;;5014562;28;20037;-71
2020/12/27 00:55:10;;;;;;;1.45;1.35;;;19.90;69.70;;;;;;4993110;28;20141;-65
2020/12/27 00:57:41;;;;;;;5.68;1.60;;;19.90;69.60;;;;;;4991480;28;20112;-68
2020/12/27 01:00:13;;;;;;;2.22;0.80;;;20.00;69.60;;;;;;5018240;28;20052;-65
2020/12/27 01:02:52;;;;;;;3.33;1.10;;;20.00;69.50;;;;;;5019310;28;20033;-66
2020/12/27 01:05:43;;;;;;;1.30;0.98;;;20.00;69.50;;;;;;5014357;28;20265;-67
2020/12/27 01:08:13;;;;;;;1.40;1.30;;;20.10;69.50;;;;;;5011961;28;20136;-68
2020/12/27 01:10:45;;;;;;;2.90;1.42;;;20.10;69.30;;;;;;4992615;28;20049;-66
2020/12/27 01:13:16;;;;;;;1.20;1.10;;;20.10;69.30;;;;;;5012088;28;20048;-66
2020/12/27 01:15:48;;;;;;;1.48;1.30;;;20.10;69.20;;;;;;4982360;28;20042;-66
2020/12/27 01:18:25;;;;;;;1.33;1.23;;;20.20;69.10;;;;;;4984277;28;20433;-67
2020/12/27 01:20:58;;;;;;;1.10;0.93;;;20.20;69.10;;;;;;5019938;28;20068;-67
2020/12/27 01:23:30;;;;;;;1.95;1.40;;;20.20;69.00;;;;;;5022899;28;20049;-67
2020/12/27 01:26:02;;;;;;;1.55;1.23;;;20.20;68.90;;;;;;4990671;28;20041;-66
2020/12/27 01:28:34;;;;;;;1.88;1.30;;;20.20;68.80;;;;;;4992564;28;20077;-65
2020/12/27 01:31:21;;;;;;;1.17;1.08;;;20.30;68.90;;;;;;4998671;28;20064;-67
2020/12/27 01:33:53;;;;;;;2.65;1.55;;;20.30;68.80;;;;;;4995429;28;20129;-72
2020/12/27 01:36:35;;;;;;;1.13;1.02;;;20.40;68.80;;;;;;4998916;28;20048;-66
2020/12/27 01:39:13;;;;;;;1.20;1.08;;;20.30;68.70;;;;;;4995157;28;20045;-66
2020/12/27 01:41:44;;;;;;;1.52;1.25;;;20.40;68.50;;;;;;5012513;28;20083;-65
2020/12/27 01:44:23;;;;;;;3.30;1.10;;;20.40;68.50;;;;;;5032978;28;20042;-66
2020/12/27 01:46:57;;;;;;;1.63;1.30;;;20.40;68.40;;;;;;4993532;28;20049;-65
2020/12/27 01:49:35;;;;;;;1.77;1.02;;;20.40;68.40;;;;;;4993259;28;20081;-67
2020/12/27 01:52:07;;;;;;;2.08;1.30;;;20.50;68.40;;;;;;5016539;28;20310;-65
2020/12/27 01:55:01;;;;;;;1.67;1.10;;;20.50;68.30;;;;;;5022348;28;20045;-68
2020/12/27 01:58:03;;;;;;;3.17;1.23;;;20.50;68.30;;;;;;4989400;28;20103;-67
2020/12/27 02:00:36;;;;;;;2.28;1.52;;;20.50;68.10;;;;;;5031041;28;20045;-67
2020/12/27 02:03:38;;;;;;;4.40;1.55;;;20.50;68.80;;;;;;5010633;28;20476;-67
2020/12/27 02:06:35;;;;;;;5.95;1.77;;;20.50;68.00;;;;;;5019544;28;20053;-67
2020/12/27 02:09:19;;;;;;;1.55;1.30;;;20.60;68.00;;;;;;5000654;28;20155;-68
2020/12/27 02:12:08;;;;;;;1.80;1.23;;;20.60;68.00;;;;;;5014222;28;20041;-67
2020/12/27 02:14:45;;;;;;;4.35;1.38;;;20.60;67.90;;;;;;5012549;28;20057;-67
2020/12/27 02:17:17;;;;;;;3.20;1.10;;;20.60;67.80;;;;;;5025288;28;20148;-67
2020/12/27 02:20:11;;;;;;;4.18;1.92;;;20.60;67.80;;;;;;5018770;28;20528;-65
2020/12/27 02:22:54;;;;;;;4.07;1.38;;;20.60;67.70;;;;;;5001432;28;20073;-67
2020/12/27 02:25:31;;;;;;;2.50;1.30;;;20.70;67.70;;;;;;5002313;28;20549;-67
2020/12/27 02:28:12;;;;;;;1.58;1.30;;;20.60;67.60;;;;;;4999620;28;20080;-67
2020/12/27 02:30:42;;;;;;;2.65;1.63;;;20.70;67.70;;;;;;5004863;28;20058;-67
2020/12/27 02:33:12;;;;;;;2.13;1.50;;;20.70;67.50;;;;;;5005444;28;20065;-67
2020/12/27 02:35:46;;;;;;;1.75;1.17;;;20.70;67.50;;;;;;5015738;28;20057;-67
2020/12/27 02:38:22;;;;;;;3.78;1.65;;;20.70;67.50;;;;;;5017324;28;20050;-67
2020/12/27 02:40:52;;;;;;;2.67;1.25;;;20.70;67.40;;;;;;4997435;28;20149;-67
2020/12/27 02:43:33;;;;;;;2.40;1.40;;;20.70;67.40;;;;;;4999437;28;20045;-67
2020/12/27 02:46:04;;;;;;;1.60;1.13;;;20.70;67.40;;;;;;4990313;28;20060;-67
2020/12/27 02:49:04;;;;;;;1.83;1.25;;;20.80;67.30;;;;;;5012142;28;20125;-68
2020/12/27 02:51:36;;;;;;;1.85;1.05;;;20.80;67.30;;;;;;5015492;28;20145;-66
2020/12/27 02:54:08;;;;;;;1.67;1.20;;;20.80;67.20;;;;;;5005665;28;20046;-69
2020/12/27 02:56:39;;;;;;;2.63;1.20;;;20.80;67.10;;;;;;4993075;28;20100;-66
2020/12/27 02:59:11;;;;;;;1.70;1.02;;;20.80;67.20;;;;;;5010394;28;20051;-69
2020/12/27 03:01:42;;;;;;;1.20;1.10;;;20.80;67.00;;;;;;5010440;28;20107;-69
2020/12/27 03:04:30;;;;;;;1.25;1.10;;;20.80;67.10;;;;;;5005664;28;20071;-67
2020/12/27 03:07:07;;;;;;;2.83;1.52;;;20.90;67.10;;;;;;5009259;28;20047;-65
2020/12/27 03:10:01;;;;;;;1.25;1.13;;;20.90;67.60;;;;;;5036309;28;20053;-67
2020/12/27 03:12:43;;;;;;;1.90;0.90;;;20.90;67.00;;;;;;4997202;28;20061;-66
2020/12/27 03:15:14;;;;;;;1.10;1.00;;;20.90;67.00;;;;;;5012771;28;20112;-66
2020/12/27 03:18:21;;;;;;;1.90;0.90;;;21.00;67.10;;;;;;4999221;28;20105;-67
2020/12/27 03:21:11;;;;;;;1.52;1.27;;;21.00;67.00;;;;;;5031695;28;20516;-66
2020/12/27 03:23:43;;;;;;;1.30;1.15;;;21.00;66.90;;;;;;5007006;28;20045;-66
2020/12/27 03:26:20;;;;;;;2.38;1.83;;;21.00;67.00;;;;;;5014590;28;20045;-67
2020/12/27 03:28:50;;;;;;;1.63;1.52;;;21.00;66.90;;;;;;5002659;28;20076;-67
2020/12/27 03:31:21;;;;;;;1.40;1.02;;;21.00;67.50;;;;;;5010386;28;20045;-67
2020/12/27 03:34:00;;;;;;;0.95;0.85;;;21.10;66.80;;;;;;4998602;28;20081;-67
2020/12/27 03:36:48;;;;;;;2.78;2.58;;;21.10;66.70;;;;;;5012990;28;20136;-66
2020/12/27 03:39:44;;;;;;;2.40;1.10;;;21.10;66.80;;;;;;4973197;28;20063;-66
2020/12/27 03:42:26;;;;;;;1.23;1.02;;;21.10;66.70;;;;;;4985314;28;20046;-67
2020/12/27 03:45:10;;;;;;;0.82;0.82;;;21.10;66.70;;;;;;5002669;28;20041;-67
2020/12/27 03:48:02;;;;;;;1.10;1.00;;;21.10;66.70;;;;;;4972637;28;20081;-69
2020/12/27 03:50:47;;;;;;;2.92;1.20;;;21.20;66.70;;;;;;4987942;28;20052;-67
2020/12/27 03:53:19;;;;;;;1.45;1.05;;;21.20;66.60;;;;;;5003213;28;20131;-67
2020/12/27 03:56:04;;;;;;;1.17;1.05;;;21.20;66.60;;;;;;5002237;28;20080;-66
2020/12/27 03:58:54;;;;;;;1.27;0.90;;;21.20;66.50;;;;;;5024679;28;20140;-67
2020/12/27 04:01:37;;;;;;;1.20;0.90;;;21.20;66.60;;;;;;5004243;28;20045;-67
2020/12/27 04:04:08;;;;;;;1.23;0.82;;;21.30;66.50;;;;;;4988017;28;20620;-66
2020/12/27 04:06:39;;;;;;;1.50;1.05;;;21.30;66.60;;;;;;5022499;28;20051;-66
2020/12/27 04:09:33;;;;;;;2.42;0.90;;;21.30;66.40;;;;;;5025641;28;20479;-66
2020/12/27 04:12:07;;;;;;;0.75;0.70;;;21.30;66.40;;;;;;4996902;28;20057;-66
2020/12/27 04:14:37;;;;;;;0.80;0.80;;;21.40;66.40;;;;;;5007161;28;20144;-65
2020/12/27 04:17:09;;;;;;;1.23;0.98;;;21.40;66.40;;;;;;5010618;28;20068;-66
2020/12/27 04:19:42;;;;;;;;;;;21.40;66.40;;;;;;5007819;28;20055;-66
2020/12/27 04:22:17;;;;;;;3.33;1.05;;;21.40;66.40;;;;;;5008870;28;19925;-66
2020/12/27 04:25:01;;;;;;;1.30;1.02;;;21.40;66.30;;;;;;4983642;28;20054;-65
2020/12/27 04:27:32;;;;;;;0.93;0.93;;;21.50;66.30;;;;;;5006318;28;20099;-64
2020/12/27 04:30:02;;;;;;;1.27;1.00;;;21.50;66.20;;;;;;5005705;28;20060;-66
2020/12/27 04:32:46;;;;;;;1.63;0.82;;;21.50;66.30;;;;;;5030708;28;20448;-65
2020/12/27 04:35:21;;;;;;;1.35;1.23;;;21.50;66.30;;;;;;4994101;28;20042;-65
2020/12/27 04:37:56;;;;;;;0.68;0.68;;;21.50;66.20;;;;;;5000225;28;20073;-64
2020/12/27 04:40:42;;;;;;;0.77;0.70;;;21.60;66.20;;;;;;4992017;28;20085;-65
2020/12/27 04:43:16;;;;;;;1.65;0.82;;;21.60;66.20;;;;;;4998460;28;20068;-66
2020/12/27 04:46:03;;;;;;;1.50;1.17;;;21.60;66.20;;;;;;5001658;28;20055;-65
2020/12/27 04:48:43;;;;;;;1.33;1.15;;;21.60;66.10;;;;;;5035849;28;20459;-67
2020/12/27 04:51:44;;;;;;;2.53;0.80;;;21.60;66.00;;;;;;5000625;28;20158;-65
2020/12/27 04:54:37;;;;;;;1.80;0.85;;;21.70;66.10;;;;;;5000328;28;20093;-67
2020/12/27 04:57:21;;;;;;;2.05;0.90;;;21.70;66.10;;;;;;5001890;28;20135;-66
2020/12/27 04:59:56;;;;;;;1.05;0.80;;;21.70;66.00;;;;;;5006379;28;20129;-66
2020/12/27 05:02:46;;;;;;;3.42;0.90;;;21.70;66.00;;;;;;4995077;28;20058;-65
2020/12/27 05:05:18;;;;;;;1.67;0.80;;;21.80;65.80;;;;;;5020104;28;20068;-66
2020/12/27 05:07:50;;;;;;;1.60;0.90;;;21.80;65.70;;;;;;4991059;28;20080;-67
2020/12/27 05:10:43;;;;;;;3.42;1.00;;;21.80;65.60;;;;;;5004514;28;20053;-66
2020/12/27 05:13:14;;;;;;;1.65;1.02;;;21.80;65.70;;;;;;4991140;28;20049;-66
2020/12/27 05:16:05;;;;;;;3.35;0.95;;;21.80;65.70;;;;;;5030554;28;20425;-66
2020/12/27 05:18:37;;;;;;;1.00;0.73;;;21.80;65.60;;;;;;4990690;28;20042;-66
2020/12/27 05:21:08;;;;;;;1.88;0.60;;;21.80;65.50;;;;;;4999629;28;20046;-66
2020/12/27 05:23:38;;;;;;;2.88;1.13;;;21.90;65.50;;;;;;4993393;28;20046;-66
2020/12/27 05:26:19;;;;;;;3.65;1.05;;;21.90;65.40;;;;;;4998453;28;20144;-66
2020/12/27 05:29:02;;;;;;;1.20;1.00;;;21.90;65.40;;;;;;5006001;28;20167;-66
2020/12/27 05:31:55;;;;;;;2.00;1.00;;;21.90;65.40;;;;;;5000765;28;20045;-66
2020/12/27 05:34:53;;;;;;;2.25;0.90;;;21.90;65.40;;;;;;4999751;28;20054;-66
2020/12/27 05:37:59;;;;;;;3.05;1.17;;;21.90;65.30;;;;;;5010660;28;20138;-66
2020/12/27 05:40:48;;;;;;;2.88;1.05;;;21.90;65.20;;;;;;5018933;28;20048;-66
2020/12/27 05:43:26;;;;;;;1.80;0.63;;;21.90;65.20;;;;;;4997782;28;20112;-66
2020/12/27 05:46:07;;;;;;;1.65;0.80;;;21.90;65.20;;;;;;5004361;28;20148;-65
2020/12/27 05:48:39;;;;;;;2.75;1.50;;;22.00;65.30;;;;;;5001176;28;20042;-68
2020/12/27 05:51:18;;;;;;;1.55;0.80;;;21.90;65.10;;;;;;5010451;28;20386;-67
2020/12/27 05:53:53;;;;;;;2.05;1.05;;;22.00;64.70;;;;;;5004874;28;20056;-66
2020/12/27 05:56:55;;;;;;;1.27;1.05;;;22.00;65.20;;;;;;4996634;28;20173;-67
2020/12/27 05:59:31;;;;;;;2.00;0.90;;;22.00;65.10;;;;;;4990699;28;20157;-66
2020/12/27 06:02:06;;;;;;;1.35;1.00;;;22.00;65.20;;;;;;5013104;28;20057;-67
2020/12/27 06:05:07;;;;;;;1.55;0.98;;;22.00;65.10;;;;;;4984422;28;20528;-69
2020/12/27 06:07:46;;;;;;;1.52;0.90;;;22.00;65.10;;;;;;5006261;28;20046;-67
2020/12/27 06:10:22;;;;;;;3.47;1.33;;;22.00;65.10;;;;;;5004898;28;20426;-67
2020/12/27 06:13:25;;;;;;;2.45;0.90;;;22.00;65.00;;;;;;5005934;28;20537;-66
2020/12/27 06:16:40;;;;;;;3.63;1.08;;;22.10;65.10;;;;;;5009026;28;20071;-67
2020/12/27 06:19:56;;;;;;;1.17;0.77;;;22.00;65.00;;;;;;4986369;28;20497;-67
2020/12/27 06:22:33;;;;;;;2.50;0.82;;;22.10;65.10;;;;;;5000055;28;20049;-67
2020/12/27 06:25:26;;;;;;;1.08;0.68;;;22.10;65.10;;;;;;4993423;28;20053;-67
2020/12/27 06:27:57;;;;;;;1.23;1.00;;;22.10;65.10;;;;;;5026833;28;20046;-67
2020/12/27 06:30:46;;;;;;;1.48;0.90;;;22.10;64.80;;;;;;5000346;28;20054;-67
2020/12/27 06:33:43;;;;;;;2.17;0.88;;;22.10;65.10;;;;;;5015474;28;20141;-67
2020/12/27 06:36:36;;;;;;;1.10;0.70;;;22.10;65.10;;;;;;5007352;28;20089;-66
2020/12/27 06:39:31;;;;;;;2.17;0.77;;;22.10;65.10;;;;;;5003712;28;20057;-67
2020/12/27 06:42:14;;;;;;;0.93;0.82;;;22.10;65.00;;;;;;5001852;28;20760;-67
2020/12/27 06:44:56;;;;;;;0.93;0.75;;;22.10;65.10;;;;;;4989464;28;20046;-67
2020/12/27 06:47:51;;;;;;;1.35;1.10;;;22.10;65.00;;;;;;5016427;28;20070;-67
2020/12/27 06:50:49;;;;;;;1.00;0.70;;;22.10;65.10;;;;;;5006125;28;20062;-67
2020/12/27 06:53:44;;;;;;;4.30;0.80;;;22.10;65.00;;;;;;4994705;28;20140;-67
2020/12/27 06:56:41;;;;;;;0.70;0.70;;;22.10;65.00;;;;;;5007940;28;20053;-65
2020/12/27 06:59:39;;;;;;;1.33;0.93;;;22.10;64.90;;;;;;5010363;28;20045;-65
2020/12/27 07:02:21;;;;;;;1.38;1.10;;;22.10;65.00;;;;;;4993367;28;20046;-66
2020/12/27 07:04:55;;;;;;;1.77;0.82;;;22.10;65.00;;;;;;5001463;28;20033;-67
2020/12/27 07:07:50;;;;;;;1.10;0.82;;;22.10;65.00;;;;;;5012571;28;20063;-67
2020/12/27 07:10:26;;;;;;;3.42;1.00;;;22.10;65.00;;;;;;5008187;28;20042;-66
2020/12/27 07:13:05;;;;;;;0.98;0.90;;;22.10;65.10;;;;;;5009006;28;20072;-66
2020/12/27 07:15:59;;;;;;;1.75;0.80;;;22.10;65.00;;;;;;5006565;28;20549;-66
2020/12/27 07:18:33;;;;;;;2.42;0.95;;;22.10;65.00;;;;;;5008180;28;21181;-66
2020/12/27 07:21:10;;;;;;;1.75;1.10;;;22.10;64.70;;;;;;5012346;28;20116;-67
2020/12/27 07:24:09;;;;;;;2.20;0.90;;;22.10;65.00;;;;;;5011253;28;20046;-66
2020/12/27 07:26:41;;;;;;;2.17;0.60;;;22.10;65.10;;;;;;5010875;28;20558;-66
2020/12/27 07:29:24;;;;;;;1.75;0.80;;;22.10;65.10;;;;;;5023927;28;20048;-66
2020/12/27 07:31:56;;;;;;;2.25;0.80;;;22.10;65.10;;;;;;5005779;28;20042;-66
2020/12/27 07:34:33;;;;;;;8.35;1.83;;;22.20;65.00;;;;;;5008127;28;20049;-66
2020/12/27 07:37:07;;;;;;;8.57;1.73;;;22.20;65.00;;;;;;5025787;28;20305;-66
2020/12/27 07:39:49;;;;;;;8.88;2.15;;;22.10;65.00;;;;;;5022400;28;20063;-66
2020/12/27 07:42:28;;;;;;;7.18;2.47;;;22.10;65.20;;;;;;5002141;28;20500;-65
2020/12/27 07:45:11;;;;;;;9.55;3.05;;;22.10;65.40;;;;;;5001558;28;20080;-66
2020/12/27 07:47:42;;;;;;;12.55;4.20;;;22.10;65.60;;;;;;5023467;28;20111;-66
2020/12/27 07:50:19;;;;;;;9.50;3.63;;;22.10;65.80;;;;;;5015479;28;20481;-67
2020/12/27 07:52:55;;;;;;;11.43;4.07;;;22.10;65.90;;;;;;5019294;28;20500;-67
2020/12/27 07:55:29;;;;;;;11.57;3.40;;;22.10;66.10;;;;;;5015868;28;20046;-67
2020/12/27 07:58:07;;;;;;;9.85;3.42;;;22.10;66.30;;;;;;5020703;28;20547;-67
2020/12/27 08:00:42;;;;;;;11.65;4.50;;;22.10;66.50;;;;;;5009443;28;20092;-67
2020/12/27 08:03:13;;;;;;;11.13;2.80;;;22.00;66.50;;;;;;4998894;28;20085;-67
2020/12/27 08:05:44;;;;;;;;;;;22.00;66.40;;;;;;4997331;28;20052;-67
2020/12/27 08:08:15;;;;;;;8.10;2.83;;;22.00;66.60;;;;;;5017633;28;20024;-67
2020/12/27 08:10:48;;;;;;;9.82;5.35;;;22.00;66.60;;;;;;5011015;28;20137;-67
2020/12/27 08:13:21;;;;;;;7.97;4.78;;;21.90;66.60;;;;;;5018412;28;20482;-68
2020/12/27 08:15:54;;;;;;;8.00;2.92;;;21.90;66.60;;;;;;5009424;28;20151;-67
2020/12/27 08:18:25;;;;;;;9.25;3.50;;;21.90;66.60;;;;;;5017854;28;20061;-67
2020/12/27 08:21:00;;;;;;;7.03;2.28;;;21.80;66.60;;;;;;5008765;28;20037;-66
2020/12/27 08:23:30;;;;;;;7.70;2.50;;;21.70;66.50;;;;;;5024512;28;20146;-65
2020/12/27 08:26:01;;;;;;;6.85;1.77;;;21.70;66.40;;;;;;5018798;28;20129;-65
2020/12/27 08:28:35;;;;;;;4.90;1.40;;;21.60;66.30;;;;;;5029946;28;20049;-66
2020/12/27 08:31:06;;;;;;;4.45;1.60;;;21.60;66.20;;;;;;4996830;28;20045;-65
2020/12/27 08:33:37;;;;;;;4.63;1.50;;;21.60;66.30;;;;;;5015359;28;20048;-65
2020/12/27 08:36:09;;;;;;;5.30;1.83;;;21.50;66.10;;;;;;5028499;28;20084;-66
2020/12/27 08:38:58;;;;;;;8.98;2.35;;;21.50;66.20;;;;;;5027167;28;20041;-65
2020/12/27 08:41:31;;;;;;;5.35;1.85;;;21.50;66.30;;;;;;4994255;28;20062;-65
2020/12/27 08:44:10;;;;;;;3.42;1.83;;;21.50;66.20;;;;;;5039093;28;20041;-66
2020/12/27 08:46:44;;;;;;;6.75;1.65;;;21.50;66.00;;;;;;5013204;28;20040;-66
2020/12/27 08:49:15;;;;;;;6.22;1.65;;;21.40;66.00;;;;;;5017607;28;20545;-66
2020/12/27 08:51:58;;;;;;;7.07;1.42;;;21.40;65.80;;;;;;5021732;28;20038;-66
2020/12/27 08:54:28;;;;;;;2.97;1.50;;;21.40;66.00;;;;;;5018109;28;20060;-65
2020/12/27 08:57:02;;;;;;;9.98;1.90;;;21.30;66.40;;;;;;5026845;28;20041;-68
2020/12/27 08:59:33;;;;;;;5.13;1.75;;;21.30;65.70;;;;;;5010458;28;20352;-67
2020/12/27 09:02:10;;;;;;;4.03;1.17;;;21.30;65.80;;;;;;5009154;28;20121;-67
2020/12/27 09:04:42;;;;;;;4.85;1.73;;;21.30;65.70;;;;;;5026878;28;20619;-69
2020/12/27 09:07:15;;;;;;;3.85;1.27;;;21.20;65.60;;;;;;5027825;28;20065;-65
2020/12/27 09:09:46;;;;;;;5.32;1.40;;;21.20;65.70;;;;;;5019454;28;20146;-66
2020/12/27 09:12:19;;;;;;;5.82;1.40;;;21.20;65.70;;;;;;5021549;28;20050;-65
2020/12/27 09:14:50;;;;;;;4.78;1.60;;;21.20;65.70;;;;;;5029122;28;20045;-67
2020/12/27 09:17:26;;;;;;;;;;;21.20;65.80;;;;;;4996390;28;20049;-65
2020/12/27 09:19:59;;;;;;;5.22;1.85;;;21.20;65.90;;;;;;5021591;28;19936;-67
2020/12/27 09:22:30;;;;;;;2.25;1.15;;;21.10;65.90;;;;;;4990949;28;20064;-66
2020/12/27 09:25:08;;;;;;;3.50;1.45;;;21.10;65.80;;;;;;5013917;28;20593;-66
2020/12/27 09:27:38;;;;;;;5.15;1.23;;;21.10;65.90;;;;;;5012893;28;20037;-66
2020/12/27 09:30:08;;;;;;;6.25;2.00;;;21.10;65.90;;;;;;5034015;28;20037;-66
2020/12/27 09:32:42;;;;;;;4.72;1.38;;;21.10;65.90;;;;;;5027794;28;20049;-65
2020/12/27 09:35:23;;;;;;;5.32;1.75;;;21.10;66.00;;;;;;5024915;28;20045;-65
2020/12/27 09:37:54;;;;;;;4.68;1.15;;;21.10;66.00;;;;;;5027423;28;20041;-66
2020/12/27 09:40:37;;;;;;;4.65;1.88;;;21.10;65.90;;;;;;5013169;28;20468;-66
2020/12/27 09:43:10;;;;;;;4.82;2.00;;;21.00;66.00;;;;;;5015574;28;20037;-65
2020/12/27 09:45:40;;;;;;;4.15;1.50;;;21.00;66.00;;;;;;5022514;28;20511;-66
2020/12/27 09:48:11;;;;;;;3.47;1.42;;;21.00;66.10;;;;;;5020983;28;20059;-67
2020/12/27 09:50:42;;;;;;;2.20;1.10;;;21.00;66.10;;;;;;5032744;28;20083;-65
2020/12/27 09:53:18;;;;;;;7.60;2.30;;;21.00;66.10;;;;;;5027434;28;20045;-67
2020/12/27 09:55:49;;;;;;;3.92;1.40;;;20.90;66.10;;;;;;5026233;28;20055;-66
2020/12/27 09:58:21;;;;;;;3.15;1.33;;;21.00;66.20;;;;;;5021710;28;20577;-64
2020/12/27 10:00:51;;;;;;;2.85;1.52;;;21.00;66.20;;;;;;5015337;28;20037;-66
2020/12/27 10:03:21;;;;;;;5.30;1.27;;;20.90;66.10;;;;;;5011400;28;20045;-66
2020/12/27 10:05:52;;;;;;;3.67;1.63;;;20.90;66.20;;;;;;5025922;28;20037;-67
2020/12/27 10:08:23;;;;;;;2.90;1.73;;;20.90;66.30;;;;;;5015422;28;20486;-65
2020/12/27 10:10:57;;;;;;;3.40;1.50;;;20.90;66.30;;;;;;5006838;28;20037;-66
2020/12/27 10:13:27;;;;;;;4.68;1.27;;;20.90;66.30;;;;;;5024400;28;20079;-65
2020/12/27 10:15:57;;;;;;;3.53;1.25;;;20.90;66.30;;;;;;5021950;28;20049;-65
2020/12/27 10:18:28;;;;;;;1.92;0.98;;;20.90;66.30;;;;;;5019942;28;20046;-65
2020/12/27 10:21:00;;;;;;;3.10;1.30;;;20.80;66.40;;;;;;5014221;28;20038;-65
2020/12/27 10:23:31;;;;;;;1.98;1.15;;;20.80;66.40;;;;;;5015878;28;20128;-65
2020/12/27 10:26:06;;;;;;;5.43;2.55;;;20.80;66.40;;;;;;5023106;28;20029;-65
2020/12/27 10:28:37;;;;;;;2.95;2.13;;;20.80;66.60;;;;;;5024957;28;20037;-65
2020/12/27 10:31:12;;;;;;;3.58;1.52;;;20.70;67.00;;;;;;5023956;28;20041;-64
2020/12/27 10:33:43;;;;;;;2.83;1.65;;;20.70;66.60;;;;;;5019075;28;20052;-68
2020/12/27 10:36:14;;;;;;;5.13;1.60;;;20.70;66.60;;;;;;5025770;28;20057;-65
2020/12/27 10:38:46;;;;;;;3.95;1.45;;;20.70;66.50;;;;;;5013908;28;20520;-63
2020/12/27 10:41:18;;;;;;;3.55;1.48;;;20.70;66.60;;;;;;5023979;28;20286;-64
2020/12/27 10:43:50;;;;;;;3.55;1.50;;;20.70;66.50;;;;;;5012785;28;20038;-65
2020/12/27 10:46:20;;;;;;;4.40;1.88;;;20.60;66.50;;;;;;5024269;28;20045;-65
2020/12/27 10:48:50;;;;;;;3.50;1.73;;;20.60;66.70;;;;;;5007414;28;20038;-65
2020/12/27 10:51:22;;;;;;;2.15;0.90;;;20.60;66.70;;;;;;5017151;28;20077;-66
2020/12/27 10:53:51;;;;;;;3.30;1.35;;;20.60;66.50;;;;;;5011122;28;20052;-66
2020/12/27 10:56:21;;;;;;;5.45;1.40;;;20.60;66.80;;;;;;5025198;28;20115;-66
2020/12/27 10:58:53;;;;;;;2.47;1.07;;;20.60;66.70;;;;;;5033536;28;20540;-66
2020/12/27 11:01:23;;;;;;;3.28;1.00;;;20.60;66.70;;;;;;5026218;28;20044;-67
2020/12/27 11:03:53;;;;;;;2.42;1.00;;;20.50;66.60;;;;;;5022452;28;20612;-66
2020/12/27 11:06:32;;;;;;;4.18;1.08;;;20.50;66.70;;;;;;5025905;28;20107;-66
2020/12/27 11:09:02;;;;;;;4.45;1.40;;;20.50;66.70;;;;;;5029544;28;20037;-67
2020/12/27 11:11:37;;;;;;;6.22;1.75;;;20.50;66.70;;;;;;5009084;28;20127;-67
2020/12/27 11:14:09;;;;;;;7.22;1.60;;;20.50;66.70;;;;;;5006279;28;20044;-68
2020/12/27 11:16:41;;;;;;;;;;;20.40;66.70;;;;;;5019166;28;20501;-67
2020/12/27 11:19:12;;;;;;;3.15;0.90;;;20.40;66.70;;;;;;5014422;28;19971;-64
2020/12/27 11:21:48;;;;;;;4.15;1.55;;;20.40;66.70;;;;;;5025569;28;20042;-65
2020/12/27 11:24:18;;;;;;;1.00;0.90;;;20.40;66.60;;;;;;5016966;28;20504;-65
2020/12/27 11:26:48;;;;;;;2.47;1.20;;;20.30;66.60;;;;;;5017835;28;20059;-68
2020/12/27 11:29:18;;;;;;;2.25;0.93;;;20.30;66.60;;;;;;5016524;28;20682;-65
2020/12/27 11:31:51;;;;;;;3.58;1.13;;;20.30;66.60;;;;;;5007443;28;20049;-67
2020/12/27 11:34:26;;;;;;;2.97;1.15;;;20.20;66.30;;;;;;5024901;28;20581;-66
2020/12/27 11:36:57;;;;;;;2.65;0.90;;;20.20;66.50;;;;;;5020939;28;20120;-67
2020/12/27 11:39:28;;;;;;;3.80;0.85;;;20.20;66.50;;;;;;5013834;28;20103;-67
2020/12/27 11:41:59;;;;;;;2.88;0.70;;;20.20;66.50;;;;;;5024380;28;20477;-67
2020/12/27 11:44:31;;;;;;;2.22;1.30;;;20.20;66.40;;;;;;5030531;28;20048;-67
2020/12/27 11:47:05;;;;;;;2.58;0.95;;;20.20;66.40;;;;;;5024637;28;20095;-65
2020/12/27 11:49:36;;;;;;;1.92;0.77;;;20.10;66.50;;;;;;5020472;28;20044;-68
2020/12/27 11:52:07;;;;;;;2.28;0.60;;;20.10;66.30;;;;;;5027665;28;20052;-68
2020/12/27 11:54:38;;;;;;;2.42;0.80;;;20.10;66.50;;;;;;5025592;28;20037;-68
2020/12/27 11:57:10;;;;;;;1.40;0.70;;;20.10;66.40;;;;;;5017689;28;20037;-67
2020/12/27 11:59:41;;;;;;;3.55;0.80;;;20.10;66.30;;;;;;5022700;28;20048;-66
2020/12/27 12:02:12;;;;;;;1.10;0.70;;;20.00;66.20;;;;;;5024145;28;20033;-67
2020/12/27 12:04:42;;;;;;;2.17;0.52;;;20.00;66.30;;;;;;5022194;28;20045;-67
2020/12/27 12:07:14;;;;;;;1.00;0.70;;;19.90;66.30;;;;;;5024759;28;20127;-66
2020/12/27 12:09:46;;;;;;;0.70;0.70;;;19.90;66.10;;;;;;5016281;28;20076;-68
2020/12/27 12:12:17;;;;;;;1.75;0.50;;;19.90;66.10;;;;;;5001463;28;20084;-66
2020/12/27 12:14:48;;;;;;;2.00;0.57;;;19.90;66.20;;;;;;5011996;28;20038;-67
2020/12/27 12:17:19;;;;;;;1.67;0.70;;;19.90;66.10;;;;;;5016258;28;20045;-68
2020/12/27 12:19:51;;;;;;;2.90;0.90;;;19.80;66.00;;;;;;5011190;28;20046;-67
2020/12/27 12:22:23;;;;;;;1.50;0.55;;;19.80;65.90;;;;;;5017036;28;20052;-66
2020/12/27 12:24:52;;;;;;;0.95;0.40;;;19.70;65.90;;;;;;5015142;28;20046;-68
2020/12/27 12:27:25;;;;;;;0.85;0.40;;;19.80;66.60;;;;;;5021592;28;20033;-68
2020/12/27 12:29:54;;;;;;;0.70;0.70;;;19.70;65.80;;;;;;5004481;28;20048;-65
2020/12/27 12:32:25;;;;;;;1.83;0.90;;;19.70;65.80;;;;;;5026207;28;20128;-68
2020/12/27 12:34:57;;;;;;;;;;;19.60;65.70;;;;;;5025426;28;20042;-66
2020/12/27 12:37:28;;;;;;;2.70;0.65;;;19.70;65.80;;;;;;5011682;28;19995;-68
2020/12/27 12:39:59;;;;;;;5.07;0.90;;;19.60;65.70;;;;;;4998081;28;20429;-67
2020/12/27 12:42:39;;;;;;;1.63;0.47;;;19.60;65.70;;;;;;5002293;28;20038;-68
2020/12/27 12:45:09;;;;;;;1.65;0.40;;;19.60;65.60;;;;;;5001340;28;20174;-65
2020/12/27 12:47:38;;;;;;;2.08;0.60;;;19.50;65.50;;;;;;5017034;28;20103;-66
2020/12/27 12:50:08;;;;;;;2.50;0.65;;;19.50;65.50;;;;;;5024682;28;20041;-69
2020/12/27 12:52:40;;;;;;;1.30;0.68;;;19.50;65.40;;;;;;5012961;28;20049;-68
2020/12/27 12:55:11;;;;;;;3.22;1.00;;;19.50;65.40;;;;;;5016108;28;20481;-66
2020/12/27 12:57:42;;;;;;;2.60;0.65;;;19.50;65.40;;;;;;5020699;28;20052;-69
2020/12/27 13:00:13;;;;;;;2.10;0.68;;;19.40;65.30;;;;;;5007039;28;20037;-65
2020/12/27 13:02:45;;;;;;;2.92;0.60;;;19.40;65.40;;;;;;5022578;28;20049;-65
2020/12/27 13:05:16;;;;;;;1.83;0.50;;;19.40;65.40;;;;;;5011037;28;20065;-68
2020/12/27 13:07:46;;;;;;;1.73;0.60;;;19.40;65.40;;;;;;5021907;28;20124;-68
2020/12/27 13:10:17;;;;;;;3.63;0.80;;;19.40;65.40;;;;;;5006594;28;20050;-69
2020/12/27 13:12:54;;;;;;;0.55;0.40;;;19.30;65.40;;;;;;5015301;28;20095;-68
2020/12/27 13:15:25;;;;;;;2.35;0.68;;;19.30;65.30;;;;;;5031272;28;20072;-66
2020/12/27 13:17:56;;;;;;;1.80;0.70;;;19.30;65.40;;;;;;5011650;28;20052;-68
2020/12/27 13:20:30;;;;;;;1.27;0.50;;;19.30;65.50;;;;;;5014490;28;20073;-68
2020/12/27 13:23:02;;;;;;;3.53;0.70;;;19.30;65.40;;;;;;5020858;28;20033;-68
2020/12/27 13:25:32;;;;;;;5.90;0.90;;;19.20;65.40;;;;;;5028462;28;20524;-68
2020/12/27 13:28:02;;;;;;;2.80;0.90;;;19.20;65.30;;;;;;5010577;28;20723;-68
2020/12/27 13:30:31;;;;;;;1.77;0.82;;;19.20;65.40;;;;;;5028215;28;20144;-67
2020/12/27 13:33:01;;;;;;;1.77;0.70;;;19.20;66.00;;;;;;5011822;28;20077;-68
2020/12/27 13:35:32;;;;;;;1.65;0.88;;;19.20;65.40;;;;;;5022675;28;20052;-68
2020/12/27 13:38:03;;;;;;;1.98;0.55;;;19.20;65.40;;;;;;5011499;28;20099;-68